sensor_id;sensor_type;location;lat;lon;timestamp;pressure;altitude;pressure_sealevel;temperature;humidity
48968;BME280;46511;53.148;8.204;2022-11-13T00:00:36;102930.59;;;8.12;85.39
48968;BME280;46511;53.148;8.204;2022-11-13T00:03:08;102926.22;;;8.10;85.91
48968;BME280;46511;53.148;8.204;2022-11-13T00:05:39;102915.63;;;8.10;85.75
48968;BME280;46511;53.148;8.204;2022-11-13T00:08:10;102916.53;;;8.09;85.83
48968;BME280;46511;53.148;8.204;2022-11-13T00:10:42;102917.41;;;8.09;86.08
48968;BME280;46511;53.148;8.204;2022-11-13T00:13:13;102917.38;;;8.11;86.14
48968;BME280;46511;53.148;8.204;2022-11-13T00:15:44;102916.50;;;8.10;86.94
48968;BME280;46511;53.148;8.204;2022-11-13T00:18:27;102907.63;;;8.14;86.92
48968;BME280;46511;53.148;8.204;2022-11-13T00:21:03;102906.78;;;8.12;87.99
48968;BME280;46511;53.148;8.204;2022-11-13T00:23:39;102900.56;;;8.16;89.14
48968;BME280;46511;53.148;8.204;2022-11-13T00:26:14;102900.50;;;8.19;89.43
48968;BME280;46511;53.148;8.204;2022-11-13T00:28:56;102901.41;;;8.18;89.82
48968;BME280;46511;53.148;8.204;2022-11-13T00:31:29;102893.50;;;8.17;89.35
48968;BME280;46511;53.148;8.204;2022-11-13T00:34:01;102897.91;;;8.18;89.07
48968;BME280;46511;53.148;8.204;2022-11-13T00:36:32;102901.38;;;8.20;89.08
48968;BME280;46511;53.148;8.204;2022-11-13T00:39:03;102904.91;;;8.20;89.31
48968;BME280;46511;53.148;8.204;2022-11-13T00:41:34;102903.13;;;8.22;89.24
48968;BME280;46511;53.148;8.204;2022-11-13T00:44:06;102893.41;;;8.21;89.05
48968;BME280;46511;53.148;8.204;2022-11-13T00:46:37;102895.16;;;8.22;88.89
48968;BME280;46511;53.148;8.204;2022-11-13T00:49:08;102897.84;;;8.21;88.51
48968;BME280;46511;53.148;8.204;2022-11-13T00:51:40;102891.72;;;8.17;87.93
48968;BME280;46511;53.148;8.204;2022-11-13T00:54:11;102889.09;;;8.16;87.99
48968;BME280;46511;53.148;8.204;2022-11-13T00:56:43;102891.75;;;8.13;87.71
48968;BME280;46511;53.148;8.204;2022-11-13T00:59:14;102890.88;;;8.12;87.71
48968;BME280;46511;53.148;8.204;2022-11-13T01:01:45;102895.38;;;8.09;87.51
48968;BME280;46511;53.148;8.204;2022-11-13T01:04:17;102895.38;;;8.07;88.41
48968;BME280;46511;53.148;8.204;2022-11-13T01:06:48;102894.50;;;8.08;88.35
48968;BME280;46511;53.148;8.204;2022-11-13T01:09:19;102903.34;;;8.06;88.33
48968;BME280;46511;53.148;8.204;2022-11-13T01:11:51;102900.69;;;8.07;88.08
48968;BME280;46511;53.148;8.204;2022-11-13T01:14:22;102893.63;;;8.06;87.92
48968;BME280;46511;53.148;8.204;2022-11-13T01:16:53;102893.63;;;8.06;87.76
48968;BME280;46511;53.148;8.204;2022-11-13T01:19:24;102891.91;;;8.02;88.24
48968;BME280;46511;53.148;8.204;2022-11-13T01:21:56;102887.50;;;8.01;88.51
48968;BME280;46511;53.148;8.204;2022-11-13T01:24:27;102883.97;;;8.02;89.51
48968;BME280;46511;53.148;8.204;2022-11-13T01:26:58;102876.03;;;8.02;89.13
48968;BME280;46511;53.148;8.204;2022-11-13T01:29:29;102872.53;;;8.00;89.29
48968;BME280;46511;53.148;8.204;2022-11-13T01:32:01;102883.19;;;7.94;89.55
48968;BME280;46511;53.148;8.204;2022-11-13T01:34:32;102873.50;;;7.93;88.92
48968;BME280;46511;53.148;8.204;2022-11-13T01:37:04;102874.38;;;7.93;88.71
48968;BME280;46511;53.148;8.204;2022-11-13T01:39:35;102870.84;;;7.93;88.72
48968;BME280;46511;53.148;8.204;2022-11-13T01:42:06;102877.94;;;7.91;89.05
48968;BME280;46511;53.148;8.204;2022-11-13T01:44:50;102872.56;;;7.95;89.24
48968;BME280;46511;53.148;8.204;2022-11-13T01:47:22;102862.00;;;7.94;89.63
48968;BME280;46511;53.148;8.204;2022-11-13T01:49:55;102854.06;;;7.97;90.32
48968;BME280;46511;53.148;8.204;2022-11-13T01:52:31;102843.47;;;7.94;89.96
48968;BME280;46511;53.148;8.204;2022-11-13T01:55:12;102840.84;;;7.94;89.59
48968;BME280;46511;53.148;8.204;2022-11-13T01:57:46;102845.28;;;7.92;89.39
48968;BME280;46511;53.148;8.204;2022-11-13T02:00:17;102838.22;;;7.92;89.61
48968;BME280;46511;53.148;8.204;2022-11-13T02:02:48;102828.50;;;7.93;90.38
48968;BME280;46511;53.148;8.204;2022-11-13T02:05:20;102830.31;;;7.91;91.41
48968;BME280;46511;53.148;8.204;2022-11-13T02:07:51;102835.53;;;7.94;91.40
48968;BME280;46511;53.148;8.204;2022-11-13T02:10:22;102827.53;;;8.00;91.11
48968;BME280;46511;53.148;8.204;2022-11-13T02:12:54;102824.06;;;7.95;90.48
48968;BME280;46511;53.148;8.204;2022-11-13T02:15:25;102823.22;;;7.93;91.46
48968;BME280;46511;53.148;8.204;2022-11-13T02:18:01;102822.28;;;7.97;92.33
48968;BME280;46511;53.148;8.204;2022-11-13T02:23:24;102817.84;;;7.99;92.29
48968;BME280;46511;53.148;8.204;2022-11-13T02:26:05;102820.53;;;7.97;92.87
48968;BME280;46511;53.148;8.204;2022-11-13T02:28:38;102821.38;;;7.99;92.28
48968;BME280;46511;53.148;8.204;2022-11-13T02:31:11;102817.78;;;8.02;91.60
48968;BME280;46511;53.148;8.204;2022-11-13T02:33:38;102813.44;;;7.99;91.50
48968;BME280;46511;53.148;8.204;2022-11-13T02:36:10;102813.44;;;7.99;91.40
48968;BME280;46511;53.148;8.204;2022-11-13T02:38:42;102805.50;;;7.98;90.98
48968;BME280;46511;53.148;8.204;2022-11-13T02:41:15;102811.69;;;7.95;91.13
48968;BME280;46511;53.148;8.204;2022-11-13T02:43:46;102814.38;;;7.94;91.26
48968;BME280;46511;53.148;8.204;2022-11-13T02:46:17;102815.28;;;7.93;90.99
48968;BME280;46511;53.148;8.204;2022-11-13T02:48:49;102818.81;;;7.92;90.58
48968;BME280;46511;53.148;8.204;2022-11-13T02:51:15;102807.41;;;7.88;90.92
48968;BME280;46511;53.148;8.204;2022-11-13T02:53:46;102814.50;;;7.85;91.46
48968;BME280;46511;53.148;8.204;2022-11-13T02:56:18;102811.00;;;7.83;91.05
48968;BME280;46511;53.148;8.204;2022-11-13T02:58:49;102811.94;;;7.79;91.07
48968;BME280;46511;53.148;8.204;2022-11-13T03:01:20;102816.38;;;7.75;91.38
48968;BME280;46511;53.148;8.204;2022-11-13T03:03:51;102810.22;;;7.74;91.12
48968;BME280;46511;53.148;8.204;2022-11-13T03:06:23;102811.97;;;7.74;91.07
48968;BME280;46511;53.148;8.204;2022-11-13T03:08:54;102804.97;;;7.71;90.93
48968;BME280;46511;53.148;8.204;2022-11-13T03:11:25;102804.13;;;7.66;91.30
48968;BME280;46511;53.148;8.204;2022-11-13T03:13:57;102799.75;;;7.65;91.94
48968;BME280;46511;53.148;8.204;2022-11-13T03:16:28;102799.72;;;7.68;92.17
48968;BME280;46511;53.148;8.204;2022-11-13T03:18:59;102797.09;;;7.65;92.60
48968;BME280;46511;53.148;8.204;2022-11-13T03:21:31;102791.81;;;7.65;93.17
48968;BME280;46511;53.148;8.204;2022-11-13T03:24:02;102792.69;;;7.66;93.08
48968;BME280;46511;53.148;8.204;2022-11-13T03:26:33;102799.75;;;7.65;92.43
48968;BME280;46511;53.148;8.204;2022-11-13T03:29:05;102784.72;;;7.67;92.71
48968;BME280;46511;53.148;8.204;2022-11-13T03:31:36;102790.03;;;7.69;92.49
48968;BME280;46511;53.148;8.204;2022-11-13T03:34:07;102787.44;;;7.63;92.97
48968;BME280;46511;53.148;8.204;2022-11-13T03:36:39;102785.63;;;7.68;92.67
48968;BME280;46511;53.148;8.204;2022-11-13T03:39:10;102785.59;;;7.69;92.44
48968;BME280;46511;53.148;8.204;2022-11-13T03:41:41;102790.06;;;7.64;92.62
48968;BME280;46511;53.148;8.204;2022-11-13T03:44:12;102786.50;;;7.67;92.97
48968;BME280;46511;53.148;8.204;2022-11-13T03:46:44;102789.13;;;7.67;92.44
48968;BME280;46511;53.148;8.204;2022-11-13T03:49:15;102788.25;;;7.66;91.86
48968;BME280;46511;53.148;8.204;2022-11-13T03:51:46;102783.91;;;7.64;91.86
48968;BME280;46511;53.148;8.204;2022-11-13T03:54:17;102785.66;;;7.65;91.59
48968;BME280;46511;53.148;8.204;2022-11-13T03:56:49;102777.75;;;7.62;91.80
48968;BME280;46511;53.148;8.204;2022-11-13T03:59:20;102776.97;;;7.54;92.78
48968;BME280;46511;53.148;8.204;2022-11-13T04:01:51;102776.16;;;7.50;93.15
48968;BME280;46511;53.148;8.204;2022-11-13T04:04:22;102779.66;;;7.52;93.05
48968;BME280;46511;53.148;8.204;2022-11-13T04:06:54;102765.63;;;7.44;93.66
48968;BME280;46511;53.148;8.204;2022-11-13T04:09:25;102766.50;;;7.44;93.34
48968;BME280;46511;53.148;8.204;2022-11-13T04:11:56;102763.94;;;7.40;93.72
48968;BME280;46511;53.148;8.204;2022-11-13T04:14:27;102762.19;;;7.36;93.88
48968;BME280;46511;53.148;8.204;2022-11-13T04:16:59;102763.13;;;7.33;93.91
48968;BME280;46511;53.148;8.204;2022-11-13T04:19:30;102762.13;;;7.42;93.50
48968;BME280;46511;53.148;8.204;2022-11-13T04:22:01;102764.75;;;7.43;92.79
48968;BME280;46511;53.148;8.204;2022-11-13T04:24:32;102759.53;;;7.40;92.93
48968;BME280;46511;53.148;8.204;2022-11-13T04:27:04;102757.00;;;7.30;93.33
48968;BME280;46511;53.148;8.204;2022-11-13T04:29:35;102755.31;;;7.23;93.63
48968;BME280;46511;53.148;8.204;2022-11-13T04:32:06;102754.47;;;7.18;93.92
48968;BME280;46511;53.148;8.204;2022-11-13T04:34:37;102753.59;;;7.19;93.70
48968;BME280;46511;53.148;8.204;2022-11-13T04:37:09;102748.34;;;7.15;93.76
48968;BME280;46511;53.148;8.204;2022-11-13T04:39:40;102741.38;;;7.08;93.99
48968;BME280;46511;53.148;8.204;2022-11-13T04:42:11;102732.47;;;7.15;93.55
48968;BME280;46511;53.148;8.204;2022-11-13T04:45:01;102725.59;;;6.99;94.41
48968;BME280;46511;53.148;8.204;2022-11-13T04:47:32;102726.50;;;7.01;94.32
48968;BME280;46511;53.148;8.204;2022-11-13T04:50:04;102724.72;;;6.99;94.37
48968;BME280;46511;53.148;8.204;2022-11-13T04:52:30;102722.06;;;7.00;94.45
48968;BME280;46511;53.148;8.204;2022-11-13T04:55:02;102724.63;;;7.08;94.11
48968;BME280;46511;53.148;8.204;2022-11-13T04:57:33;102729.88;;;7.12;93.53
48968;BME280;46511;53.148;8.204;2022-11-13T05:00:05;102723.81;;;7.04;93.51
48968;BME280;46511;53.148;8.204;2022-11-13T05:02:38;102724.72;;;7.02;94.12
48968;BME280;46511;53.148;8.204;2022-11-13T05:05:09;102730.84;;;7.05;94.10
48968;BME280;46511;53.148;8.204;2022-11-13T05:07:41;102716.72;;;7.06;94.23
48968;BME280;46511;53.148;8.204;2022-11-13T05:10:12;102727.25;;;7.09;93.49
48968;BME280;46511;53.148;8.204;2022-11-13T05:12:43;102722.88;;;7.07;93.58
48968;BME280;46511;53.148;8.204;2022-11-13T05:15:15;102719.41;;;7.05;93.11
48968;BME280;46511;53.148;8.204;2022-11-13T05:17:47;102724.72;;;7.02;92.70
48968;BME280;46511;53.148;8.204;2022-11-13T05:20:19;102727.41;;;6.97;92.64
48968;BME280;46511;53.148;8.204;2022-11-13T05:22:50;102726.47;;;7.00;92.56
48968;BME280;46511;53.148;8.204;2022-11-13T05:25:21;102719.44;;;6.99;91.92
48968;BME280;46511;53.148;8.204;2022-11-13T05:27:53;102720.31;;;6.99;92.81
48968;BME280;46511;53.148;8.204;2022-11-13T05:30:24;102729.13;;;6.98;92.77
48968;BME280;46511;53.148;8.204;2022-11-13T05:32:55;102720.41;;;6.93;92.57
48968;BME280;46511;53.148;8.204;2022-11-13T05:35:27;102720.41;;;6.93;92.24
48968;BME280;46511;53.148;8.204;2022-11-13T05:38:01;102720.41;;;6.92;92.62
48968;BME280;46511;53.148;8.204;2022-11-13T05:40:32;102715.13;;;6.90;93.12
48968;BME280;46511;53.148;8.204;2022-11-13T05:43:03;102709.84;;;6.90;93.07
48968;BME280;46511;53.148;8.204;2022-11-13T05:45:35;102710.78;;;6.86;93.33
48968;BME280;46511;53.148;8.204;2022-11-13T05:48:06;102696.69;;;6.87;93.03
48968;BME280;46511;53.148;8.204;2022-11-13T05:50:37;102690.56;;;6.82;93.46
48968;BME280;46511;53.148;8.204;2022-11-13T05:53:08;102693.19;;;6.82;93.59
48968;BME280;46511;53.148;8.204;2022-11-13T05:55:40;102692.34;;;6.83;93.84
48968;BME280;46511;53.148;8.204;2022-11-13T05:58:11;102688.81;;;6.84;93.17
48968;BME280;46511;53.148;8.204;2022-11-13T06:00:42;102692.38;;;6.77;93.66
48968;BME280;46511;53.148;8.204;2022-11-13T06:03:14;102680.97;;;6.75;94.08
48968;BME280;46511;53.148;8.204;2022-11-13T06:05:45;102679.19;;;6.77;93.69
48968;BME280;46511;53.148;8.204;2022-11-13T06:08:16;102680.22;;;6.61;94.09
48968;BME280;46511;53.148;8.204;2022-11-13T06:10:47;102694.19;;;6.72;94.08
48968;BME280;46511;53.148;8.204;2022-11-13T06:13:19;102687.16;;;6.71;92.90
48968;BME280;46511;53.148;8.204;2022-11-13T06:15:50;102673.09;;;6.69;92.77
48968;BME280;46511;53.148;8.204;2022-11-13T06:18:22;102674.03;;;6.63;92.54
48968;BME280;46511;53.148;8.204;2022-11-13T06:20:54;102670.53;;;6.61;92.67
48968;BME280;46511;53.148;8.204;2022-11-13T06:23:25;102673.25;;;6.56;92.36
48968;BME280;46511;53.148;8.204;2022-11-13T06:26:16;102680.28;;;6.53;92.51
48968;BME280;46511;53.148;8.204;2022-11-13T06:28:49;102674.16;;;6.51;92.82
48968;BME280;46511;53.148;8.204;2022-11-13T06:31:22;102674.16;;;6.51;92.99
48968;BME280;46511;53.148;8.204;2022-11-13T06:33:55;102677.72;;;6.48;93.32
48968;BME280;46511;53.148;8.204;2022-11-13T06:36:30;102678.63;;;6.44;93.81
48968;BME280;46511;53.148;8.204;2022-11-13T06:39:06;102673.31;;;6.47;93.88
48968;BME280;46511;53.148;8.204;2022-11-13T06:41:39;102680.34;;;6.48;93.01
48968;BME280;46511;53.148;8.204;2022-11-13T06:44:10;102676.84;;;6.46;93.24
48968;BME280;46511;53.148;8.204;2022-11-13T06:46:41;102675.13;;;6.45;93.55
48968;BME280;46511;53.148;8.204;2022-11-13T06:49:13;102676.94;;;6.37;93.85
48968;BME280;46511;53.148;8.204;2022-11-13T06:51:44;102677.78;;;6.39;94.70
48968;BME280;46511;53.148;8.204;2022-11-13T06:54:15;102671.59;;;6.43;94.76
48968;BME280;46511;53.148;8.204;2022-11-13T06:56:46;102674.31;;;6.34;94.84
48968;BME280;46511;53.148;8.204;2022-11-13T06:59:18;102670.69;;;6.44;94.72
48968;BME280;46511;53.148;8.204;2022-11-13T07:01:49;102671.53;;;6.49;94.16
48968;BME280;46511;53.148;8.204;2022-11-13T07:04:21;102675.03;;;6.54;94.42
48968;BME280;46511;53.148;8.204;2022-11-13T07:06:52;102664.47;;;6.54;94.53
48968;BME280;46511;53.148;8.204;2022-11-13T07:09:24;102663.44;;;6.68;93.62
48968;BME280;46511;53.148;8.204;2022-11-13T07:11:55;102661.53;;;6.80;93.13
48968;BME280;46511;53.148;8.204;2022-11-13T07:14:26;102662.41;;;6.81;92.96
48968;BME280;46511;53.148;8.204;2022-11-13T07:16:57;102661.41;;;6.90;92.77
48968;BME280;46511;53.148;8.204;2022-11-13T07:19:29;102657.00;;;6.93;92.20
48968;BME280;46511;53.148;8.204;2022-11-13T07:22:00;102662.19;;;6.99;92.16
48968;BME280;46511;53.148;8.204;2022-11-13T07:24:31;102660.34;;;7.07;91.74
48968;BME280;46511;53.148;8.204;2022-11-13T07:27:02;102660.28;;;7.12;91.73
48968;BME280;46511;53.148;8.204;2022-11-13T07:29:34;102658.53;;;7.12;91.24
48968;BME280;46511;53.148;8.204;2022-11-13T07:32:06;102655.75;;;7.23;91.02
48968;BME280;46511;53.148;8.204;2022-11-13T07:34:37;102645.91;;;7.33;90.30
48968;BME280;46511;53.148;8.204;2022-11-13T07:37:08;102644.06;;;7.41;90.22
48968;BME280;46511;53.148;8.204;2022-11-13T07:39:40;102640.47;;;7.43;90.37
48968;BME280;46511;53.148;8.204;2022-11-13T07:42:11;102642.03;;;7.60;89.50
48968;BME280;46511;53.148;8.204;2022-11-13T07:44:43;102635.63;;;7.73;89.24
48968;BME280;46511;53.148;8.204;2022-11-13T07:47:14;102636.19;;;7.93;88.26
48968;BME280;46511;53.148;8.204;2022-11-13T07:49:45;102639.19;;;8.26;87.33
48968;BME280;46511;53.148;8.204;2022-11-13T07:52:16;102639.09;;;9.23;85.03
48968;BME280;46511;53.148;8.204;2022-11-13T07:54:48;102639.47;;;10.19;79.42
48968;BME280;46511;53.148;8.204;2022-11-13T07:57:19;102638.91;;;10.75;73.96
48968;BME280;46511;53.148;8.204;2022-11-13T07:59:52;102637.88;;;11.11;71.38
48968;BME280;46511;53.148;8.204;2022-11-13T08:02:24;102639.41;;;11.76;67.98
48968;BME280;46511;53.148;8.204;2022-11-13T08:04:55;102643.59;;;12.11;65.07
48968;BME280;46511;53.148;8.204;2022-11-13T08:07:26;102644.50;;;11.84;65.92
48968;BME280;46511;53.148;8.204;2022-11-13T08:09:57;102643.25;;;11.67;66.82
48968;BME280;46511;53.148;8.204;2022-11-13T08:12:29;102639.72;;;11.95;65.65
48968;BME280;46511;53.148;8.204;2022-11-13T08:15:00;102643.66;;;12.36;64.32
48968;BME280;46511;53.148;8.204;2022-11-13T08:17:31;102642.47;;;12.45;63.47
48968;BME280;46511;53.148;8.204;2022-11-13T08:20:03;102635.47;;;12.41;62.95
48968;BME280;46511;53.148;8.204;2022-11-13T08:22:35;102632.09;;;12.85;63.10
48968;BME280;46511;53.148;8.204;2022-11-13T08:25:06;102625.91;;;12.60;61.94
48968;BME280;46511;53.148;8.204;2022-11-13T08:27:38;102619.22;;;13.22;59.84
48968;BME280;46511;53.148;8.204;2022-11-13T08:30:09;102624.41;;;13.48;58.73
48968;BME280;46511;53.148;8.204;2022-11-13T08:32:41;102618.25;;;13.90;57.82
48968;BME280;46511;53.148;8.204;2022-11-13T08:35:12;102627.22;;;13.67;57.15
48968;BME280;46511;53.148;8.204;2022-11-13T08:37:44;102615.94;;;15.23;54.47
48968;BME280;46511;53.148;8.204;2022-11-13T08:40:15;102625.72;;;16.15;50.26
48968;BME280;46511;53.148;8.204;2022-11-13T08:42:46;102620.84;;;16.06;50.08
48968;BME280;46511;53.148;8.204;2022-11-13T08:45:18;102622.59;;;16.42;48.42
48968;BME280;46511;53.148;8.204;2022-11-13T08:47:49;102628.19;;;15.66;49.70
48968;BME280;46511;53.148;8.204;2022-11-13T08:50:20;102616.44;;;15.50;51.07
48968;BME280;46511;53.148;8.204;2022-11-13T08:52:55;102616.69;;;15.27;50.99
48968;BME280;46511;53.148;8.204;2022-11-13T08:55:27;102619.25;;;16.19;49.16
48968;BME280;46511;53.148;8.204;2022-11-13T08:57:59;102614.88;;;15.82;49.46
48968;BME280;46511;53.148;8.204;2022-11-13T09:00:31;102616.88;;;15.96;49.60
48968;BME280;46511;53.148;8.204;2022-11-13T09:03:04;102612.47;;;15.95;48.83
48968;BME280;46511;53.148;8.204;2022-11-13T09:05:36;102617.69;;;16.15;48.64
48968;BME280;46511;53.148;8.204;2022-11-13T09:08:07;102615.13;;;16.64;48.66
48968;BME280;46511;53.148;8.204;2022-11-13T09:10:34;102607.84;;;16.66;47.12
48968;BME280;46511;53.148;8.204;2022-11-13T09:13:06;102604.44;;;16.12;48.05
48968;BME280;46511;53.148;8.204;2022-11-13T09:15:39;102595.72;;;17.09;47.38
48968;BME280;46511;53.148;8.204;2022-11-13T09:18:12;102602.94;;;16.92;46.51
48968;BME280;46511;53.148;8.204;2022-11-13T09:20:43;102597.66;;;16.22;48.46
48968;BME280;46511;53.148;8.204;2022-11-13T09:23:14;102605.06;;;17.18;47.38
48968;BME280;46511;53.148;8.204;2022-11-13T09:25:46;102599.09;;;17.76;46.11
48968;BME280;46511;53.148;8.204;2022-11-13T09:28:17;102601.50;;;18.71;44.23
48968;BME280;46511;53.148;8.204;2022-11-13T09:30:49;102595.00;;;19.30;43.65
48968;BME280;46511;53.148;8.204;2022-11-13T09:33:20;102599.84;;;18.82;42.74
48968;BME280;46511;53.148;8.204;2022-11-13T09:35:51;102599.56;;;18.73;44.55
48968;BME280;46511;53.148;8.204;2022-11-13T09:38:22;102605.56;;;18.04;45.24
48968;BME280;46511;53.148;8.204;2022-11-13T09:46:19;102593.34;;;19.96;43.48
48968;BME280;46511;53.148;8.204;2022-11-13T09:51:52;102588.88;;;18.13;44.05
48968;BME280;46511;53.148;8.204;2022-11-13T09:54:25;102583.41;;;18.14;44.41
48968;BME280;46511;53.148;8.204;2022-11-13T09:57:04;102579.78;;;19.44;43.09
48968;BME280;46511;53.148;8.204;2022-11-13T09:59:47;102579.47;;;19.62;43.38
48968;BME280;46511;53.148;8.204;2022-11-13T10:08:18;102585.34;;;19.40;42.96
48968;BME280;46511;53.148;8.204;2022-11-13T10:11:08;102576.88;;;18.91;43.09
48968;BME280;46511;53.148;8.204;2022-11-13T10:13:51;102571.66;;;19.97;41.93
48968;BME280;46511;53.148;8.204;2022-11-13T10:16:35;102573.88;;;21.07;40.83
48968;BME280;46511;53.148;8.204;2022-11-13T10:19:16;102580.75;;;19.69;41.88
48968;BME280;46511;53.148;8.204;2022-11-13T10:22:01;102583.41;;;18.73;43.15
48968;BME280;46511;53.148;8.204;2022-11-13T10:24:40;102570.22;;;19.52;43.06
48968;BME280;46511;53.148;8.204;2022-11-13T10:27:13;102572.13;;;19.50;42.04
48968;BME280;46511;53.148;8.204;2022-11-13T10:29:45;102582.25;;;18.91;42.72
48968;BME280;46511;53.148;8.204;2022-11-13T10:32:21;102568.09;;;19.02;43.22
48968;BME280;46511;53.148;8.204;2022-11-13T10:34:59;102574.41;;;20.10;41.59
48968;BME280;46511;53.148;8.204;2022-11-13T10:40:37;102574.69;;;20.58;40.14
48968;BME280;46511;53.148;8.204;2022-11-13T10:43:13;102573.97;;;20.04;40.36
48968;BME280;46511;53.148;8.204;2022-11-13T10:45:59;102565.88;;;20.16;41.24
48968;BME280;46511;53.148;8.204;2022-11-13T10:48:33;102561.09;;;20.47;39.99
48968;BME280;46511;53.148;8.204;2022-11-13T10:51:25;102544.34;;;21.88;37.25
48968;BME280;46511;53.148;8.204;2022-11-13T10:53:59;102530.13;;;22.55;36.55
48968;BME280;46511;53.148;8.204;2022-11-13T10:56:31;102536.44;;;22.89;34.69
48968;BME280;46511;53.148;8.204;2022-11-13T10:59:17;102534.56;;;22.90;35.79
48968;BME280;46511;53.148;8.204;2022-11-13T11:01:49;102530.31;;;24.57;33.08
48968;BME280;46511;53.148;8.204;2022-11-13T11:04:22;102524.25;;;25.15;30.83
48968;BME280;46511;53.148;8.204;2022-11-13T11:07:02;102522.53;;;24.73;31.08
48968;BME280;46511;53.148;8.204;2022-11-13T11:09:42;102516.81;;;23.83;32.49
48968;BME280;46511;53.148;8.204;2022-11-13T11:12:17;102504.38;;;25.33;30.77
48968;BME280;46511;53.148;8.204;2022-11-13T11:17:45;102507.38;;;25.11;29.29
48968;BME280;46511;53.148;8.204;2022-11-13T11:22:58;102497.06;;;25.53;29.74
48968;BME280;46511;53.148;8.204;2022-11-13T11:25:40;102490.75;;;25.24;29.72
48968;BME280;46511;53.148;8.204;2022-11-13T11:28:35;102488.75;;;25.16;28.88
48968;BME280;46511;53.148;8.204;2022-11-13T11:31:21;102495.28;;;26.20;nan
48968;BME280;46511;53.148;8.204;2022-11-13T11:40:05;102478.88;;;29.86;nan
48968;BME280;46511;53.148;8.204;2022-11-13T11:42:50;102477.75;;;28.98;nan
48968;BME280;46511;53.148;8.204;2022-11-13T11:45:29;102471.69;;;29.53;nan
48968;BME280;46511;53.148;8.204;2022-11-13T11:48:11;102473.03;;;30.06;nan
48968;BME280;46511;53.148;8.204;2022-11-13T11:53:52;102469.56;;;31.98;nan
48968;BME280;46511;53.148;8.204;2022-11-13T12:06:09;102450.72;;;31.04;nan
48968;BME280;46511;53.148;8.204;2022-11-13T12:09:19;102451.41;;;30.27;nan
48968;BME280;46511;53.148;8.204;2022-11-13T12:17:47;102445.00;;;31.59;nan
48968;BME280;46511;53.148;8.204;2022-11-13T12:23:34;102443.63;;;31.40;nan
48968;BME280;46511;53.148;8.204;2022-11-13T12:32:07;102428.38;;;30.84;nan
48968;BME280;46511;53.148;8.204;2022-11-13T12:34:50;102422.31;;;31.42;nan
48968;BME280;46511;53.148;8.204;2022-11-13T12:37:28;102418.78;;;31.57;nan
48968;BME280;46511;53.148;8.204;2022-11-13T12:40:04;102420.09;;;31.61;nan
48968;BME280;46511;53.148;8.204;2022-11-13T12:42:45;102408.66;;;30.49;nan
48968;BME280;46511;53.148;8.204;2022-11-13T12:50:55;102409.66;;;26.87;nan
48968;BME280;46511;53.148;8.204;2022-11-13T12:53:29;102405.09;;;25.67;nan
48968;BME280;46511;53.148;8.204;2022-11-13T12:58:51;102400.53;;;25.48;nan
48968;BME280;46511;53.148;8.204;2022-11-13T13:01:33;102398.78;;;25.85;nan
48968;BME280;46511;53.148;8.204;2022-11-13T13:15:35;102389.41;;;26.44;nan
48968;BME280;46511;53.148;8.204;2022-11-13T13:18:12;102380.34;;;26.89;nan
48968;BME280;46511;53.148;8.204;2022-11-13T13:21:08;102377.84;;;26.78;nan
48968;BME280;46511;53.148;8.204;2022-11-13T13:23:46;102376.09;;;26.32;nan
48968;BME280;46511;53.148;8.204;2022-11-13T13:26:27;102378.97;;;25.93;nan
48968;BME280;46511;53.148;8.204;2022-11-13T13:29:01;102383.56;;;25.92;nan
48968;BME280;46511;53.148;8.204;2022-11-13T13:32:00;102374.78;;;26.45;nan
48968;BME280;46511;53.148;8.204;2022-11-13T13:34:54;102370.84;;;25.83;nan
48968;BME280;46511;53.148;8.204;2022-11-13T13:40:29;102374.66;;;26.37;nan
48968;BME280;46511;53.148;8.204;2022-11-13T13:49:04;102357.88;;;25.39;nan
48968;BME280;46511;53.148;8.204;2022-11-13T13:51:40;102350.75;;;25.94;nan
48968;BME280;46511;53.148;8.204;2022-11-13T13:54:16;102352.75;;;26.29;nan
48968;BME280;46511;53.148;8.204;2022-11-13T13:56:50;102355.69;;;25.81;nan
48968;BME280;46511;53.148;8.204;2022-11-13T13:59:27;102354.31;;;25.95;nan
48968;BME280;46511;53.148;8.204;2022-11-13T14:02:02;102352.69;;;25.55;nan
48968;BME280;46511;53.148;8.204;2022-11-13T14:04:44;102355.59;;;25.44;nan
48968;BME280;46511;53.148;8.204;2022-11-13T14:07:29;102350.16;;;25.34;nan
48968;BME280;46511;53.148;8.204;2022-11-13T14:10:14;102351.59;;;25.38;nan
48968;BME280;46511;53.148;8.204;2022-11-13T14:12:47;102342.56;;;24.70;nan
48968;BME280;46511;53.148;8.204;2022-11-13T14:15:20;102343.19;;;23.93;nan
48968;BME280;46511;53.148;8.204;2022-11-13T14:18:07;102350.13;;;23.86;nan
48968;BME280;46511;53.148;8.204;2022-11-13T14:23:20;102348.09;;;23.57;nan
48968;BME280;46511;53.148;8.204;2022-11-13T14:25:57;102346.53;;;23.13;nan
48968;BME280;46511;53.148;8.204;2022-11-13T14:28:30;102344.28;;;22.86;nan
48968;BME280;46511;53.148;8.204;2022-11-13T14:31:04;102350.16;;;22.03;nan
48968;BME280;46511;53.148;8.204;2022-11-13T14:33:45;102346.63;;;20.99;nan
48968;BME280;46511;53.148;8.204;2022-11-13T14:36:23;102342.28;;;20.12;nan
48968;BME280;46511;53.148;8.204;2022-11-13T14:38:59;102347.06;;;19.18;nan
48968;BME280;46511;53.148;8.204;2022-11-13T14:41:35;102341.59;;;18.38;nan
48968;BME280;46511;53.148;8.204;2022-11-13T14:44:10;102343.44;;;17.81;nan
48968;BME280;46511;53.148;8.204;2022-11-13T14:46:42;102338.97;;;17.51;nan
48968;BME280;46511;53.148;8.204;2022-11-13T14:49:31;102342.44;;;17.09;nan
48968;BME280;46511;53.148;8.204;2022-11-13T14:52:04;102342.84;;;16.71;nan
48968;BME280;46511;53.148;8.204;2022-11-13T14:54:37;102334.53;;;16.28;nan
48968;BME280;46511;53.148;8.204;2022-11-13T14:57:10;102343.94;;;16.04;nan
48968;BME280;46511;53.148;8.204;2022-11-13T14:59:43;102335.22;;;15.67;nan
48968;BME280;46511;53.148;8.204;2022-11-13T15:02:14;102340.09;;;15.42;nan
48968;BME280;46511;53.148;8.204;2022-11-13T15:04:45;102344.91;;;15.18;nan